sensor_id;sensor_type;location;lat;lon;timestamp;P1;durP1;ratioP1;P2;durP2;ratioP2
44048;SDS011;29717;47.028;15.470;2024-01-30T00:00:52;29.67;;;21.70;;
44048;SDS011;29717;47.028;15.470;2024-01-30T00:03:19;29.60;;;20.67;;
44048;SDS011;29717;47.028;15.470;2024-01-30T00:05:46;28.67;;;21.07;;
44048;SDS011;29717;47.028;15.470;2024-01-30T00:08:13;28.20;;;21.00;;
44048;SDS011;29717;47.028;15.470;2024-01-30T00:10:41;28.43;;;22.20;;
44048;SDS011;29717;47.028;15.470;2024-01-30T00:13:08;31.87;;;21.73;;
44048;SDS011;29717;47.028;15.470;2024-01-30T00:15:34;29.83;;;20.90;;
44048;SDS011;29717;47.028;15.470;2024-01-30T00:18:01;28.67;;;20.67;;
44048;SDS011;29717;47.028;15.470;2024-01-30T00:20:28;30.47;;;22.33;;
44048;SDS011;29717;47.028;15.470;2024-01-30T00:22:55;28.33;;;21.27;;
44048;SDS011;29717;47.028;15.470;2024-01-30T00:25:21;35.43;;;22.57;;
44048;SDS011;29717;47.028;15.470;2024-01-30T00:27:49;29.37;;;22.47;;
44048;SDS011;29717;47.028;15.470;2024-01-30T00:30:16;28.57;;;20.63;;
44048;SDS011;29717;47.028;15.470;2024-01-30T00:32:43;30.27;;;21.47;;
44048;SDS011;29717;47.028;15.470;2024-01-30T00:35:10;30.70;;;21.17;;
44048;SDS011;29717;47.028;15.470;2024-01-30T00:37:36;31.90;;;21.73;;
44048;SDS011;29717;47.028;15.470;2024-01-30T00:40:03;30.73;;;21.87;;
44048;SDS011;29717;47.028;15.470;2024-01-30T00:42:31;28.50;;;21.83;;
44048;SDS011;29717;47.028;15.470;2024-01-30T00:44:59;29.17;;;22.37;;
44048;SDS011;29717;47.028;15.470;2024-01-30T00:47:26;27.83;;;20.63;;
44048;SDS011;29717;47.028;15.470;2024-01-30T00:49:54;27.47;;;21.43;;
44048;SDS011;29717;47.028;15.470;2024-01-30T00:52:21;27.40;;;20.13;;
44048;SDS011;29717;47.028;15.470;2024-01-30T00:54:48;29.13;;;22.30;;
44048;SDS011;29717;47.028;15.470;2024-01-30T00:57:14;29.70;;;21.73;;
44048;SDS011;29717;47.028;15.470;2024-01-30T00:59:41;31.53;;;21.50;;
44048;SDS011;29717;47.028;15.470;2024-01-30T01:02:09;30.20;;;21.27;;
44048;SDS011;29717;47.028;15.470;2024-01-30T01:04:36;31.73;;;22.73;;
44048;SDS011;29717;47.028;15.470;2024-01-30T01:07:03;30.73;;;21.67;;
44048;SDS011;29717;47.028;15.470;2024-01-30T01:09:30;30.07;;;22.53;;
44048;SDS011;29717;47.028;15.470;2024-01-30T01:11:56;28.93;;;22.03;;
44048;SDS011;29717;47.028;15.470;2024-01-30T01:14:23;32.47;;;22.33;;
44048;SDS011;29717;47.028;15.470;2024-01-30T01:16:50;31.07;;;21.73;;
44048;SDS011;29717;47.028;15.470;2024-01-30T01:19:19;31.80;;;22.40;;
44048;SDS011;29717;47.028;15.470;2024-01-30T01:21:45;31.73;;;22.00;;
44048;SDS011;29717;47.028;15.470;2024-01-30T01:24:12;29.10;;;21.70;;
44048;SDS011;29717;47.028;15.470;2024-01-30T01:26:39;33.40;;;23.10;;
44048;SDS011;29717;47.028;15.470;2024-01-30T01:29:06;34.03;;;24.63;;
44048;SDS011;29717;47.028;15.470;2024-01-30T01:31:35;36.87;;;24.63;;
44048;SDS011;29717;47.028;15.470;2024-01-30T01:34:05;35.20;;;24.47;;
44048;SDS011;29717;47.028;15.470;2024-01-30T01:36:33;35.60;;;25.23;;
44048;SDS011;29717;47.028;15.470;2024-01-30T01:39:00;42.10;;;25.57;;
44048;SDS011;29717;47.028;15.470;2024-01-30T01:41:29;34.03;;;24.67;;
44048;SDS011;29717;47.028;15.470;2024-01-30T01:43:56;33.83;;;23.70;;
44048;SDS011;29717;47.028;15.470;2024-01-30T01:46:23;36.90;;;25.13;;
44048;SDS011;29717;47.028;15.470;2024-01-30T01:48:50;34.83;;;23.63;;
44048;SDS011;29717;47.028;15.470;2024-01-30T01:51:17;37.50;;;24.20;;
44048;SDS011;29717;47.028;15.470;2024-01-30T01:53:45;32.13;;;23.97;;
44048;SDS011;29717;47.028;15.470;2024-01-30T01:56:11;35.63;;;24.47;;
44048;SDS011;29717;47.028;15.470;2024-01-30T01:58:38;34.77;;;24.07;;
44048;SDS011;29717;47.028;15.470;2024-01-30T02:01:05;30.80;;;23.93;;
44048;SDS011;29717;47.028;15.470;2024-01-30T02:03:32;34.77;;;24.17;;
44048;SDS011;29717;47.028;15.470;2024-01-30T02:06:00;32.43;;;23.40;;
44048;SDS011;29717;47.028;15.470;2024-01-30T02:08:27;32.97;;;23.47;;
44048;SDS011;29717;47.028;15.470;2024-01-30T02:10:56;35.97;;;26.10;;
44048;SDS011;29717;47.028;15.470;2024-01-30T02:13:23;35.43;;;23.33;;
44048;SDS011;29717;47.028;15.470;2024-01-30T02:15:50;34.73;;;24.17;;
44048;SDS011;29717;47.028;15.470;2024-01-30T02:18:16;31.27;;;23.33;;
44048;SDS011;29717;47.028;15.470;2024-01-30T02:20:43;34.93;;;25.00;;
44048;SDS011;29717;47.028;15.470;2024-01-30T02:23:11;28.57;;;22.37;;
44048;SDS011;29717;47.028;15.470;2024-01-30T02:25:39;35.03;;;25.17;;
44048;SDS011;29717;47.028;15.470;2024-01-30T02:28:09;33.40;;;24.30;;
44048;SDS011;29717;47.028;15.470;2024-01-30T02:30:36;34.13;;;23.97;;
44048;SDS011;29717;47.028;15.470;2024-01-30T02:33:03;32.00;;;23.83;;
44048;SDS011;29717;47.028;15.470;2024-01-30T02:35:29;32.70;;;23.90;;
44048;SDS011;29717;47.028;15.470;2024-01-30T02:37:56;32.20;;;24.57;;
44048;SDS011;29717;47.028;15.470;2024-01-30T02:40:24;31.03;;;23.20;;
44048;SDS011;29717;47.028;15.470;2024-01-30T02:42:51;33.87;;;24.00;;
44048;SDS011;29717;47.028;15.470;2024-01-30T02:45:18;29.60;;;22.77;;
44048;SDS011;29717;47.028;15.470;2024-01-30T02:47:45;37.47;;;24.63;;
44048;SDS011;29717;47.028;15.470;2024-01-30T02:50:12;31.90;;;23.90;;
44048;SDS011;29717;47.028;15.470;2024-01-30T02:52:40;29.83;;;23.87;;
44048;SDS011;29717;47.028;15.470;2024-01-30T02:55:09;33.70;;;23.83;;
44048;SDS011;29717;47.028;15.470;2024-01-30T02:57:37;30.27;;;23.40;;
44048;SDS011;29717;47.028;15.470;2024-01-30T03:00:04;36.33;;;23.93;;
44048;SDS011;29717;47.028;15.470;2024-01-30T03:02:31;33.00;;;23.20;;
44048;SDS011;29717;47.028;15.470;2024-01-30T03:04:59;31.37;;;22.93;;
44048;SDS011;29717;47.028;15.470;2024-01-30T03:07:25;32.23;;;23.73;;
44048;SDS011;29717;47.028;15.470;2024-01-30T03:09:53;31.27;;;22.33;;
44048;SDS011;29717;47.028;15.470;2024-01-30T03:12:20;29.70;;;21.93;;
44048;SDS011;29717;47.028;15.470;2024-01-30T03:14:48;27.97;;;21.90;;
44048;SDS011;29717;47.028;15.470;2024-01-30T03:17:15;29.47;;;22.50;;
44048;SDS011;29717;47.028;15.470;2024-01-30T03:19:42;32.17;;;22.97;;
44048;SDS011;29717;47.028;15.470;2024-01-30T03:22:09;34.23;;;22.67;;
44048;SDS011;29717;47.028;15.470;2024-01-30T03:24:35;29.83;;;22.67;;
44048;SDS011;29717;47.028;15.470;2024-01-30T03:27:02;32.57;;;23.20;;
44048;SDS011;29717;47.028;15.470;2024-01-30T03:29:29;29.23;;;23.93;;
44048;SDS011;29717;47.028;15.470;2024-01-30T03:31:57;31.30;;;23.87;;
44048;SDS011;29717;47.028;15.470;2024-01-30T03:34:24;30.13;;;23.63;;
44048;SDS011;29717;47.028;15.470;2024-01-30T03:36:51;34.23;;;24.83;;
44048;SDS011;29717;47.028;15.470;2024-01-30T03:39:17;30.40;;;22.67;;
44048;SDS011;29717;47.028;15.470;2024-01-30T03:41:44;33.57;;;22.67;;
44048;SDS011;29717;47.028;15.470;2024-01-30T03:44:11;30.23;;;22.50;;
44048;SDS011;29717;47.028;15.470;2024-01-30T03:46:38;35.30;;;22.70;;
44048;SDS011;29717;47.028;15.470;2024-01-30T03:49:06;31.90;;;22.57;;
44048;SDS011;29717;47.028;15.470;2024-01-30T03:51:33;33.13;;;23.57;;
44048;SDS011;29717;47.028;15.470;2024-01-30T03:53:59;29.87;;;24.47;;
44048;SDS011;29717;47.028;15.470;2024-01-30T03:56:26;32.67;;;23.63;;
44048;SDS011;29717;47.028;15.470;2024-01-30T03:58:53;30.77;;;21.77;;
44048;SDS011;29717;47.028;15.470;2024-01-30T04:01:21;29.30;;;21.83;;
44048;SDS011;29717;47.028;15.470;2024-01-30T04:03:48;27.73;;;22.20;;
44048;SDS011;29717;47.028;15.470;2024-01-30T04:06:16;31.40;;;24.00;;
44048;SDS011;29717;47.028;15.470;2024-01-30T04:08:43;32.33;;;22.23;;
44048;SDS011;29717;47.028;15.470;2024-01-30T04:11:09;28.17;;;21.33;;
44048;SDS011;29717;47.028;15.470;2024-01-30T04:13:36;32.80;;;22.27;;
44048;SDS011;29717;47.028;15.470;2024-01-30T04:16:03;31.40;;;21.97;;
44048;SDS011;29717;47.028;15.470;2024-01-30T04:18:30;32.97;;;23.23;;
44048;SDS011;29717;47.028;15.470;2024-01-30T04:20:57;28.00;;;21.97;;
44048;SDS011;29717;47.028;15.470;2024-01-30T04:23:25;31.30;;;22.97;;
44048;SDS011;29717;47.028;15.470;2024-01-30T04:25:52;28.57;;;22.10;;
44048;SDS011;29717;47.028;15.470;2024-01-30T04:28:18;31.60;;;23.43;;
44048;SDS011;29717;47.028;15.470;2024-01-30T04:30:45;29.13;;;23.23;;
44048;SDS011;29717;47.028;15.470;2024-01-30T04:33:12;36.37;;;23.40;;
44048;SDS011;29717;47.028;15.470;2024-01-30T04:35:39;29.93;;;22.03;;
44048;SDS011;29717;47.028;15.470;2024-01-30T04:38:05;30.27;;;23.87;;
44048;SDS011;29717;47.028;15.470;2024-01-30T04:40:33;38.37;;;24.93;;
44048;SDS011;29717;47.028;15.470;2024-01-30T04:43:00;34.33;;;23.83;;
44048;SDS011;29717;47.028;15.470;2024-01-30T04:45:27;34.83;;;24.77;;
44048;SDS011;29717;47.028;15.470;2024-01-30T04:47:54;32.60;;;24.90;;
44048;SDS011;29717;47.028;15.470;2024-01-30T04:50:20;32.83;;;24.73;;
44048;SDS011;29717;47.028;15.470;2024-01-30T04:52:47;33.50;;;24.70;;
44048;SDS011;29717;47.028;15.470;2024-01-30T04:55:14;30.93;;;24.60;;
44048;SDS011;29717;47.028;15.470;2024-01-30T04:57:42;34.23;;;24.67;;
44048;SDS011;29717;47.028;15.470;2024-01-30T05:00:09;43.87;;;32.53;;
44048;SDS011;29717;47.028;15.470;2024-01-30T05:02:36;39.73;;;28.43;;
44048;SDS011;29717;47.028;15.470;2024-01-30T05:05:03;38.33;;;27.77;;
44048;SDS011;29717;47.028;15.470;2024-01-30T05:07:30;35.07;;;25.93;;
44048;SDS011;29717;47.028;15.470;2024-01-30T05:09:57;37.20;;;25.50;;
44048;SDS011;29717;47.028;15.470;2024-01-30T05:12:25;33.80;;;25.37;;
44048;SDS011;29717;47.028;15.470;2024-01-30T05:14:53;36.33;;;26.33;;
44048;SDS011;29717;47.028;15.470;2024-01-30T05:17:19;32.70;;;23.73;;
44048;SDS011;29717;47.028;15.470;2024-01-30T05:19:46;30.90;;;23.17;;
44048;SDS011;29717;47.028;15.470;2024-01-30T05:22:13;30.03;;;22.60;;
44048;SDS011;29717;47.028;15.470;2024-01-30T05:24:40;29.37;;;22.47;;
44048;SDS011;29717;47.028;15.470;2024-01-30T05:27:07;32.60;;;23.00;;
44048;SDS011;29717;47.028;15.470;2024-01-30T05:29:34;31.33;;;23.27;;
44048;SDS011;29717;47.028;15.470;2024-01-30T05:32:02;31.17;;;22.80;;
44048;SDS011;29717;47.028;15.470;2024-01-30T05:34:29;33.30;;;24.80;;
44048;SDS011;29717;47.028;15.470;2024-01-30T05:36:55;33.87;;;24.93;;
44048;SDS011;29717;47.028;15.470;2024-01-30T05:39:22;33.33;;;23.97;;
44048;SDS011;29717;47.028;15.470;2024-01-30T05:41:49;33.30;;;25.10;;
44048;SDS011;29717;47.028;15.470;2024-01-30T05:44:15;31.93;;;23.77;;
44048;SDS011;29717;47.028;15.470;2024-01-30T05:46:42;30.67;;;23.67;;
44048;SDS011;29717;47.028;15.470;2024-01-30T05:49:11;29.93;;;22.73;;
44048;SDS011;29717;47.028;15.470;2024-01-30T05:51:37;34.03;;;23.80;;
44048;SDS011;29717;47.028;15.470;2024-01-30T05:54:04;31.53;;;23.73;;
44048;SDS011;29717;47.028;15.470;2024-01-30T05:56:31;30.47;;;23.03;;
44048;SDS011;29717;47.028;15.470;2024-01-30T05:58:56;34.83;;;22.80;;
44048;SDS011;29717;47.028;15.470;2024-01-30T06:01:23;30.30;;;23.67;;
44048;SDS011;29717;47.028;15.470;2024-01-30T06:03:50;30.60;;;23.27;;
44048;SDS011;29717;47.028;15.470;2024-01-30T06:06:18;32.33;;;24.23;;
44048;SDS011;29717;47.028;15.470;2024-01-30T06:08:45;30.03;;;23.10;;
44048;SDS011;29717;47.028;15.470;2024-01-30T06:11:12;29.70;;;22.40;;
44048;SDS011;29717;47.028;15.470;2024-01-30T06:13:38;34.83;;;23.80;;
44048;SDS011;29717;47.028;15.470;2024-01-30T06:16:08;29.13;;;22.37;;
44048;SDS011;29717;47.028;15.470;2024-01-30T06:18:35;32.73;;;24.30;;
44048;SDS011;29717;47.028;15.470;2024-01-30T06:21:02;29.53;;;22.50;;
44048;SDS011;29717;47.028;15.470;2024-01-30T06:23:30;29.73;;;23.40;;
44048;SDS011;29717;47.028;15.470;2024-01-30T06:25:56;31.10;;;22.13;;
44048;SDS011;29717;47.028;15.470;2024-01-30T06:28:23;37.87;;;24.87;;
44048;SDS011;29717;47.028;15.470;2024-01-30T06:30:50;31.77;;;23.63;;
44048;SDS011;29717;47.028;15.470;2024-01-30T06:33:17;34.53;;;23.33;;
44048;SDS011;29717;47.028;15.470;2024-01-30T06:35:43;32.87;;;23.40;;
44048;SDS011;29717;47.028;15.470;2024-01-30T06:38:11;30.17;;;23.47;;
44048;SDS011;29717;47.028;15.470;2024-01-30T06:40:39;28.83;;;22.80;;
44048;SDS011;29717;47.028;15.470;2024-01-30T06:43:06;30.57;;;23.93;;
44048;SDS011;29717;47.028;15.470;2024-01-30T06:45:33;31.67;;;23.03;;
44048;SDS011;29717;47.028;15.470;2024-01-30T06:48:00;32.00;;;22.90;;
44048;SDS011;29717;47.028;15.470;2024-01-30T06:50:27;30.93;;;22.80;;
44048;SDS011;29717;47.028;15.470;2024-01-30T06:52:54;35.20;;;22.93;;
44048;SDS011;29717;47.028;15.470;2024-01-30T06:55:21;31.37;;;23.30;;
44048;SDS011;29717;47.028;15.470;2024-01-30T06:57:49;28.63;;;23.17;;
44048;SDS011;29717;47.028;15.470;2024-01-30T07:00:16;30.97;;;23.83;;
44048;SDS011;29717;47.028;15.470;2024-01-30T07:02:44;33.53;;;23.83;;
44048;SDS011;29717;47.028;15.470;2024-01-30T07:05:11;28.40;;;23.23;;
44048;SDS011;29717;47.028;15.470;2024-01-30T07:07:38;41.13;;;28.43;;
44048;SDS011;29717;47.028;15.470;2024-01-30T07:10:05;39.97;;;28.50;;
44048;SDS011;29717;47.028;15.470;2024-01-30T07:12:32;46.10;;;30.13;;
44048;SDS011;29717;47.028;15.470;2024-01-30T07:15:00;43.93;;;29.90;;
44048;SDS011;29717;47.028;15.470;2024-01-30T07:17:28;43.73;;;29.63;;
44048;SDS011;29717;47.028;15.470;2024-01-30T07:19:54;44.50;;;29.47;;
44048;SDS011;29717;47.028;15.470;2024-01-30T07:22:21;40.37;;;28.93;;
44048;SDS011;29717;47.028;15.470;2024-01-30T07:24:48;37.07;;;28.77;;
44048;SDS011;29717;47.028;15.470;2024-01-30T07:27:16;37.97;;;27.07;;
44048;SDS011;29717;47.028;15.470;2024-01-30T07:29:43;40.00;;;28.17;;
44048;SDS011;29717;47.028;15.470;2024-01-30T07:32:11;41.13;;;27.90;;
44048;SDS011;29717;47.028;15.470;2024-01-30T07:34:38;37.27;;;27.03;;
44048;SDS011;29717;47.028;15.470;2024-01-30T07:37:05;34.93;;;26.93;;
44048;SDS011;29717;47.028;15.470;2024-01-30T07:39:33;40.07;;;26.70;;
44048;SDS011;29717;47.028;15.470;2024-01-30T07:42:00;34.67;;;27.67;;
44048;SDS011;29717;47.028;15.470;2024-01-30T07:44:27;39.20;;;28.97;;
44048;SDS011;29717;47.028;15.470;2024-01-30T07:46:53;37.23;;;27.20;;
44048;SDS011;29717;47.028;15.470;2024-01-30T07:49:23;34.67;;;25.67;;
44048;SDS011;29717;47.028;15.470;2024-01-30T07:51:50;41.03;;;27.53;;
44048;SDS011;29717;47.028;15.470;2024-01-30T07:54:17;36.63;;;25.97;;
44048;SDS011;29717;47.028;15.470;2024-01-30T07:56:44;35.93;;;26.07;;
44048;SDS011;29717;47.028;15.470;2024-01-30T07:59:10;36.43;;;25.73;;
44048;SDS011;29717;47.028;15.470;2024-01-30T08:01:37;36.97;;;25.73;;
44048;SDS011;29717;47.028;15.470;2024-01-30T08:04:04;37.10;;;25.63;;
44048;SDS011;29717;47.028;15.470;2024-01-30T08:06:32;38.23;;;23.77;;
44048;SDS011;29717;47.028;15.470;2024-01-30T08:08:59;34.10;;;23.83;;
44048;SDS011;29717;47.028;15.470;2024-01-30T08:11:25;29.37;;;21.83;;
44048;SDS011;29717;47.028;15.470;2024-01-30T08:13:54;30.67;;;21.97;;
44048;SDS011;29717;47.028;15.470;2024-01-30T08:16:20;32.23;;;23.33;;
44048;SDS011;29717;47.028;15.470;2024-01-30T08:18:47;32.40;;;23.43;;
44048;SDS011;29717;47.028;15.470;2024-01-30T08:21:14;30.23;;;23.53;;
44048;SDS011;29717;47.028;15.470;2024-01-30T08:23:42;33.67;;;24.23;;
44048;SDS011;29717;47.028;15.470;2024-01-30T08:26:08;31.00;;;23.90;;
44048;SDS011;29717;47.028;15.470;2024-01-30T08:28:35;38.00;;;24.20;;
44048;SDS011;29717;47.028;15.470;2024-01-30T08:31:02;33.00;;;24.10;;
44048;SDS011;29717;47.028;15.470;2024-01-30T08:33:29;35.20;;;25.20;;
44048;SDS011;29717;47.028;15.470;2024-01-30T08:35:55;37.73;;;23.60;;
44048;SDS011;29717;47.028;15.470;2024-01-30T08:38:22;33.92;;;24.05;;
44048;SDS011;29717;47.028;15.470;2024-01-30T08:40:50;34.70;;;23.30;;
44048;SDS011;29717;47.028;15.470;2024-01-30T08:43:17;30.98;;;22.90;;
44048;SDS011;29717;47.028;15.470;2024-01-30T08:45:43;28.00;;;21.42;;
44048;SDS011;29717;47.028;15.470;2024-01-30T08:48:10;31.30;;;23.15;;
44048;SDS011;29717;47.028;15.470;2024-01-30T08:50:37;31.25;;;22.10;;
44048;SDS011;29717;47.028;15.470;2024-01-30T08:53:04;27.98;;;21.95;;
44048;SDS011;29717;47.028;15.470;2024-01-30T08:55:30;30.52;;;22.15;;
44048;SDS011;29717;47.028;15.470;2024-01-30T08:57:58;27.73;;;20.30;;
44048;SDS011;29717;47.028;15.470;2024-01-30T09:00:25;25.60;;;20.95;;
44048;SDS011;29717;47.028;15.470;2024-01-30T09:02:52;26.30;;;20.13;;
44048;SDS011;29717;47.028;15.470;2024-01-30T09:05:18;25.92;;;19.67;;
44048;SDS011;29717;47.028;15.470;2024-01-30T09:07:45;22.55;;;18.92;;
44048;SDS011;29717;47.028;15.470;2024-01-30T09:10:12;20.95;;;16.92;;
44048;SDS011;29717;47.028;15.470;2024-01-30T09:12:38;25.00;;;17.45;;
44048;SDS011;29717;47.028;15.470;2024-01-30T09:15:07;22.15;;;17.65;;
44048;SDS011;29717;47.028;15.470;2024-01-30T09:17:34;22.67;;;18.65;;
44048;SDS011;29717;47.028;15.470;2024-01-30T09:20:00;25.52;;;18.88;;
44048;SDS011;29717;47.028;15.470;2024-01-30T09:22:27;24.20;;;17.90;;
44048;SDS011;29717;47.028;15.470;2024-01-30T09:24:54;21.92;;;18.17;;
44048;SDS011;29717;47.028;15.470;2024-01-30T09:27:20;23.23;;;16.77;;
44048;SDS011;29717;47.028;15.470;2024-01-30T09:29:47;23.23;;;16.38;;
44048;SDS011;29717;47.028;15.470;2024-01-30T09:32:15;18.67;;;16.15;;
44048;SDS011;29717;47.028;15.470;2024-01-30T09:34:43;19.77;;;16.08;;
44048;SDS011;29717;47.028;15.470;2024-01-30T09:37:09;17.08;;;15.15;;
44048;SDS011;29717;47.028;15.470;2024-01-30T09:39:36;17.65;;;14.65;;
44048;SDS011;29717;47.028;15.470;2024-01-30T09:42:05;20.20;;;16.27;;
44048;SDS011;29717;47.028;15.470;2024-01-30T09:44:31;20.67;;;16.00;;
44048;SDS011;29717;47.028;15.470;2024-01-30T09:47:02;22.08;;;15.63;;
44048;SDS011;29717;47.028;15.470;2024-01-30T09:49:32;17.85;;;15.18;;
44048;SDS011;29717;47.028;15.470;2024-01-30T09:52:00;18.25;;;14.95;;
44048;SDS011;29717;47.028;15.470;2024-01-30T09:54:28;17.20;;;14.45;;
44048;SDS011;29717;47.028;15.470;2024-01-30T09:56:56;21.40;;;15.35;;
44048;SDS011;29717;47.028;15.470;2024-01-30T09:59:23;19.23;;;14.43;;
44048;SDS011;29717;47.028;15.470;2024-01-30T10:01:49;18.33;;;14.23;;
44048;SDS011;29717;47.028;15.470;2024-01-30T10:04:16;18.85;;;14.57;;
44048;SDS011;29717;47.028;15.470;2024-01-30T10:06:45;25.58;;;14.45;;
44048;SDS011;29717;47.028;15.470;2024-01-30T10:09:12;16.50;;;13.95;;
44048;SDS011;29717;47.028;15.470;2024-01-30T10:11:39;20.80;;;14.38;;
44048;SDS011;29717;47.028;15.470;2024-01-30T10:14:06;17.98;;;13.23;;
44048;SDS011;29717;47.028;15.470;2024-01-30T10:16:34;16.58;;;12.98;;
44048;SDS011;29717;47.028;15.470;2024-01-30T10:19:00;19.35;;;12.65;;
44048;SDS011;29717;47.028;15.470;2024-01-30T10:21:28;13.23;;;11.82;;
44048;SDS011;29717;47.028;15.470;2024-01-30T10:23:57;13.55;;;11.88;;
44048;SDS011;29717;47.028;15.470;2024-01-30T10:26:24;13.15;;;11.07;;
44048;SDS011;29717;47.028;15.470;2024-01-30T10:28:51;18.08;;;11.05;;
44048;SDS011;29717;47.028;15.470;2024-01-30T10:31:17;14.85;;;12.02;;
44048;SDS011;29717;47.028;15.470;2024-01-30T10:33:44;14.75;;;11.35;;
44048;SDS011;29717;47.028;15.470;2024-01-30T10:36:13;13.60;;;11.07;;
44048;SDS011;29717;47.028;15.470;2024-01-30T10:38:42;17.25;;;11.50;;
44048;SDS011;29717;47.028;15.470;2024-01-30T10:41:13;13.02;;;11.40;;
44048;SDS011;29717;47.028;15.470;2024-01-30T10:43:41;14.32;;;10.98;;
44048;SDS011;29717;47.028;15.470;2024-01-30T10:46:15;17.58;;;11.85;;
44048;SDS011;29717;47.028;15.470;2024-01-30T10:48:43;15.05;;;11.43;;
44048;SDS011;29717;47.028;15.470;2024-01-30T10:51:10;15.32;;;10.77;;
44048;SDS011;29717;47.028;15.470;2024-01-30T10:53:38;14.82;;;10.70;;
44048;SDS011;29717;47.028;15.470;2024-01-30T10:56:05;15.15;;;10.40;;
44048;SDS011;29717;47.028;15.470;2024-01-30T10:58:34;13.00;;;11.00;;
44048;SDS011;29717;47.028;15.470;2024-01-30T11:01:01;13.40;;;10.52;;
44048;SDS011;29717;47.028;15.470;2024-01-30T11:03:28;12.35;;;10.45;;
44048;SDS011;29717;47.028;15.470;2024-01-30T11:05:59;13.23;;;10.00;;
44048;SDS011;29717;47.028;15.470;2024-01-30T11:08:27;16.60;;;10.75;;
44048;SDS011;29717;47.028;15.470;2024-01-30T11:10:55;12.35;;;10.80;;
44048;SDS011;29717;47.028;15.470;2024-01-30T11:13:22;13.10;;;10.25;;
44048;SDS011;29717;47.028;15.470;2024-01-30T11:15:50;10.77;;;9.68;;
44048;SDS011;29717;47.028;15.470;2024-01-30T11:18:23;12.43;;;10.07;;
44048;SDS011;29717;47.028;15.470;2024-01-30T11:20:50;12.65;;;10.00;;
44048;SDS011;29717;47.028;15.470;2024-01-30T11:23:17;12.75;;;9.70;;
44048;SDS011;29717;47.028;15.470;2024-01-30T11:25:44;17.25;;;11.30;;
44048;SDS011;29717;47.028;15.470;2024-01-30T11:28:13;14.82;;;10.73;;
44048;SDS011;29717;47.028;15.470;2024-01-30T11:30:41;12.10;;;10.00;;
44048;SDS011;29717;47.028;15.470;2024-01-30T11:33:09;13.07;;;10.98;;
44048;SDS011;29717;47.028;15.470;2024-01-30T11:35:37;14.60;;;11.27;;
44048;SDS011;29717;47.028;15.470;2024-01-30T11:38:04;12.93;;;10.07;;
44048;SDS011;29717;47.028;15.470;2024-01-30T11:40:32;13.07;;;10.48;;
44048;SDS011;29717;47.028;15.470;2024-01-30T11:43:00;11.45;;;10.23;;
44048;SDS011;29717;47.028;15.470;2024-01-30T11:45:27;12.25;;;10.02;;
44048;SDS011;29717;47.028;15.470;2024-01-30T11:47:54;13.82;;;10.60;;
44048;SDS011;29717;47.028;15.470;2024-01-30T11:50:22;12.45;;;10.70;;
44048;SDS011;29717;47.028;15.470;2024-01-30T11:52:49;14.05;;;10.82;;
44048;SDS011;29717;47.028;15.470;2024-01-30T11:55:16;12.00;;;10.00;;
44048;SDS011;29717;47.028;15.470;2024-01-30T11:57:44;15.55;;;9.90;;
44048;SDS011;29717;47.028;15.470;2024-01-30T12:00:14;12.05;;;10.18;;
44048;SDS011;29717;47.028;15.470;2024-01-30T12:02:41;13.70;;;10.18;;
44048;SDS011;29717;47.028;15.470;2024-01-30T12:05:08;14.68;;;9.63;;
44048;SDS011;29717;47.028;15.470;2024-01-30T12:07:37;12.80;;;9.80;;
44048;SDS011;29717;47.028;15.470;2024-01-30T12:10:04;10.82;;;9.25;;
44048;SDS011;29717;47.028;15.470;2024-01-30T12:12:33;11.18;;;9.23;;
44048;SDS011;29717;47.028;15.470;2024-01-30T12:15:00;10.52;;;9.05;;
44048;SDS011;29717;47.028;15.470;2024-01-30T12:17:28;11.02;;;8.95;;
44048;SDS011;29717;47.028;15.470;2024-01-30T12:20:02;9.70;;;8.70;;
44048;SDS011;29717;47.028;15.470;2024-01-30T12:22:29;10.38;;;8.68;;
44048;SDS011;29717;47.028;15.470;2024-01-30T12:24:57;9.82;;;8.10;;
44048;SDS011;29717;47.028;15.470;2024-01-30T12:27:24;13.93;;;8.85;;
44048;SDS011;29717;47.028;15.470;2024-01-30T12:29:55;11.90;;;9.45;;
44048;SDS011;29717;47.028;15.470;2024-01-30T12:32:22;11.13;;;9.15;;
44048;SDS011;29717;47.028;15.470;2024-01-30T12:34:49;10.15;;;9.15;;
44048;SDS011;29717;47.028;15.470;2024-01-30T12:37:16;12.75;;;9.05;;
44048;SDS011;29717;47.028;15.470;2024-01-30T12:39:47;11.35;;;8.98;;
44048;SDS011;29717;47.028;15.470;2024-01-30T12:42:16;9.32;;;8.32;;
44048;SDS011;29717;47.028;15.470;2024-01-30T12:44:43;12.55;;;9.48;;
44048;SDS011;29717;47.028;15.470;2024-01-30T12:47:09;11.52;;;9.50;;
44048;SDS011;29717;47.028;15.470;2024-01-30T12:49:36;12.57;;;9.35;;
44048;SDS011;29717;47.028;15.470;2024-01-30T12:52:03;10.15;;;8.73;;
44048;SDS011;29717;47.028;15.470;2024-01-30T12:54:30;10.90;;;9.45;;
44048;SDS011;29717;47.028;15.470;2024-01-30T12:56:57;10.65;;;8.93;;
44048;SDS011;29717;47.028;15.470;2024-01-30T12:59:25;13.35;;;9.40;;
44048;SDS011;29717;47.028;15.470;2024-01-30T13:01:52;12.35;;;9.70;;
44048;SDS011;29717;47.028;15.470;2024-01-30T13:04:19;11.07;;;9.82;;
44048;SDS011;29717;47.028;15.470;2024-01-30T13:06:45;14.02;;;9.77;;
44048;SDS011;29717;47.028;15.470;2024-01-30T13:09:12;10.93;;;9.50;;
44048;SDS011;29717;47.028;15.470;2024-01-30T13:11:39;11.93;;;9.50;;
44048;SDS011;29717;47.028;15.470;2024-01-30T13:14:06;12.55;;;10.07;;
44048;SDS011;29717;47.028;15.470;2024-01-30T13:16:34;12.82;;;9.77;;
44048;SDS011;29717;47.028;15.470;2024-01-30T13:19:01;11.40;;;9.90;;
44048;SDS011;29717;47.028;15.470;2024-01-30T13:21:29;12.57;;;9.65;;
44048;SDS011;29717;47.028;15.470;2024-01-30T13:23:55;15.68;;;10.20;;
44048;SDS011;29717;47.028;15.470;2024-01-30T13:26:22;15.00;;;9.60;;
44048;SDS011;29717;47.028;15.470;2024-01-30T13:28:49;11.38;;;10.20;;
44048;SDS011;29717;47.028;15.470;2024-01-30T13:31:16;15.27;;;9.98;;
44048;SDS011;29717;47.028;15.470;2024-01-30T13:33:46;11.43;;;9.57;;
44048;SDS011;29717;47.028;15.470;2024-01-30T13:36:14;13.25;;;10.00;;
44048;SDS011;29717;47.028;15.470;2024-01-30T13:38:40;16.13;;;9.48;;
44048;SDS011;29717;47.028;15.470;2024-01-30T13:41:07;13.35;;;10.25;;
44048;SDS011;29717;47.028;15.470;2024-01-30T13:43:34;12.13;;;10.45;;
44048;SDS011;29717;47.028;15.470;2024-01-30T13:46:01;12.43;;;9.68;;
44048;SDS011;29717;47.028;15.470;2024-01-30T13:48:28;13.80;;;10.73;;
44048;SDS011;29717;47.028;15.470;2024-01-30T13:50:56;16.48;;;11.55;;
44048;SDS011;29717;47.028;15.470;2024-01-30T13:53:23;11.60;;;9.93;;
44048;SDS011;29717;47.028;15.470;2024-01-30T13:55:50;13.63;;;9.90;;
44048;SDS011;29717;47.028;15.470;2024-01-30T13:58:16;13.45;;;10.23;;
44048;SDS011;29717;47.028;15.470;2024-01-30T14:00:43;15.25;;;11.15;;
44048;SDS011;29717;47.028;15.470;2024-01-30T14:03:10;14.02;;;11.00;;
44048;SDS011;29717;47.028;15.470;2024-01-30T14:05:36;15.55;;;11.68;;
44048;SDS011;29717;47.028;15.470;2024-01-30T14:08:05;13.77;;;11.10;;
44048;SDS011;29717;47.028;15.470;2024-01-30T14:10:32;14.30;;;11.32;;